Map

Track Data

SID SEASON NUMBER BASIN SUBBASIN NAME ISO_TIME NATURE LAT LON WMO_WIND WMO_PRES WMO_AGENCY TRACK_TYPE DIST2LAND LANDFALL IFLAG USA_AGENCY USA_ATCF_ID USA_LAT USA_LON USA_RECORD USA_STATUS USA_WIND USA_PRES USA_SSHS USA_R34_NE USA_R34_SE USA_R34_SW USA_R34_NW USA_R50_NE USA_R50_SE USA_R50_SW USA_R50_NW USA_R64_NE USA_R64_SE USA_R64_SW USA_R64_NW USA_POCI USA_ROCI USA_RMW USA_EYE TOKYO_LAT TOKYO_LON TOKYO_GRADE TOKYO_WIND TOKYO_PRES TOKYO_R50_DIR TOKYO_R50_LONG TOKYO_R50_SHORT TOKYO_R30_DIR TOKYO_R30_LONG TOKYO_R30_SHORT TOKYO_LAND CMA_LAT CMA_LON CMA_CAT CMA_WIND CMA_PRES HKO_LAT HKO_LON HKO_CAT HKO_WIND HKO_PRES NEWDELHI_LAT NEWDELHI_LON NEWDELHI_GRADE NEWDELHI_WIND NEWDELHI_PRES NEWDELHI_CI NEWDELHI_DP NEWDELHI_POCI REUNION_LAT REUNION_LON REUNION_TYPE REUNION_WIND REUNION_PRES REUNION_TNUM REUNION_CI REUNION_RMW REUNION_R34_NE REUNION_R34_SE REUNION_R34_SW REUNION_R34_NW REUNION_R50_NE REUNION_R50_SE REUNION_R50_SW REUNION_R50_NW REUNION_R64_NE REUNION_R64_SE REUNION_R64_SW REUNION_R64_NW BOM_LAT BOM_LON BOM_TYPE BOM_WIND BOM_PRES BOM_TNUM BOM_CI BOM_RMW BOM_R34_NE BOM_R34_SE BOM_R34_SW BOM_R34_NW BOM_R50_NE BOM_R50_SE BOM_R50_SW BOM_R50_NW BOM_R64_NE BOM_R64_SE BOM_R64_SW BOM_R64_NW BOM_ROCI BOM_POCI BOM_EYE BOM_POS_METHOD BOM_PRES_METHOD NADI_LAT NADI_LON NADI_CAT NADI_WIND NADI_PRES WELLINGTON_LAT WELLINGTON_LON WELLINGTON_WIND WELLINGTON_PRES DS824_LAT DS824_LON DS824_STAGE DS824_WIND DS824_PRES TD9636_LAT TD9636_LON TD9636_STAGE TD9636_WIND TD9636_PRES TD9635_LAT TD9635_LON TD9635_WIND TD9635_PRES TD9635_ROCI NEUMANN_LAT NEUMANN_LON NEUMANN_CLASS NEUMANN_WIND NEUMANN_PRES MLC_LAT MLC_LON MLC_CLASS MLC_WIND MLC_PRES USA_GUST BOM_GUST BOM_GUST_PER REUNION_GUST REUNION_GUST_PER USA_SEAHGT USA_SEARAD_NE USA_SEARAD_SE USA_SEARAD_SW USA_SEARAD_NW STORM_SPEED STORM_DIR
1981016S15080 1981 5 SI MM GAELLE 1981-01-16 06:00:00 TS -15.2000 79.5000 reunion main 2365 2329 _____O________ -1 -15.2000 79.5000 3 9.90000 10 199
1981016S15080 1981 5 SI MM GAELLE 1981-01-16 09:00:00 TS -15.6876 79.3327 main 2329 2310 _____P________ -1 -15.6876 79.3327 3 9 200
1981016S15080 1981 5 SI MM GAELLE 1981-01-16 12:00:00 NR -16.0000 79.2000 reunion main 2310 2299 _____O________ -1 -16.0000 79.2000 99 9.90000 4 213
1981016S15080 1981 5 SI MM GAELLE 1981-01-16 15:00:00 NR -16.0124 79.1150 main 2299 2292 _____P________ -1 -16.0124 79.1150 99 3 316
1981016S15080 1981 5 SI MM GAELLE 1981-01-16 18:00:00 NR -15.8000 79.0000 reunion main 2295 2284 _____O________ -1 -15.8000 79.0000 99 9.90000 7 332
1981016S15080 1981 5 SI MM GAELLE 1981-01-16 21:00:00 NR -15.3750 78.7720 main 2287 2266 _____P________ -1 -15.3750 78.7720 99 9 325
1981016S15080 1981 5 SI MM GAELLE 1981-01-17 00:00:00 NR -15.1000 78.5000 reunion main 2266 2226 _____O________ -1 -15.1000 78.5000 99 9.90000 5 264
1981016S15080 1981 5 SI MM GAELLE 1981-01-17 03:00:00 NR -15.4250 78.2355 main 2226 2189 _____P________ -1 -15.4250 78.2355 99 9 211
1981016S15080 1981 5 SI MM GAELLE 1981-01-17 06:00:00 TS -15.9000 78.0000 reunion main 2189 2173 _____O________ -1 -15.9000 78.0000 2 9.90000 8 208
1981016S15080 1981 5 SI MM GAELLE 1981-01-17 09:00:00 TS -16.1024 77.8648 main 2173 2149 _____P________ -1 -16.1024 77.8648 2 4 224
1981016S15080 1981 5 SI MM GAELLE 1981-01-17 12:00:00 NR -16.2000 77.7000 reunion main 2149 2115 _____O________ -1 -16.2000 77.7000 99 9.90000 5 252
1981016S15080 1981 5 SI MM GAELLE 1981-01-17 15:00:00 NR -16.2576 77.3724 main 2115 2074 _____P________ -1 -16.2576 77.3724 99 7 262
1981016S15080 1981 5 SI MM GAELLE 1981-01-17 18:00:00 NR -16.3000 77.0000 reunion main 2074 2040 _____O________ -1 -16.3000 77.0000 99 9.90000 7 258
1981016S15080 1981 5 SI MM GAELLE 1981-01-17 21:00:00 NR -16.4000 76.6776 main 2040 2006 _____P________ -1 -16.4000 76.6776 99 6 251
1981016S15080 1981 5 SI MM GAELLE 1981-01-18 00:00:00 NR -16.5000 76.4000 reunion main 2006 1983 _____O________ -1 -16.5000 76.4000 99 9.90000 5 251
1981016S15080 1981 5 SI MM GAELLE 1981-01-18 03:00:00 NR -16.5650 76.1700 main 1983 1962 _____P________ -1 -16.5650 76.1700 99 4 255
1981016S15080 1981 5 SI MM GAELLE 1981-01-18 06:00:00 TS -16.6000 76.0000 reunion main 1962 1952 _____O________ -1 -16.6000 76.0000 2 9.90000 3 261
1981016S15080 1981 5 SI MM GAELLE 1981-01-18 09:00:00 TS -16.6075 75.8925 main 1952 1942 _____P________ -1 -16.6075 75.8925 2 2 270
1981016S15080 1981 5 SI MM GAELLE 1981-01-18 12:00:00 NR -16.6000 75.8000 reunion main 1942 1931 _____O________ -1 -16.6000 75.8000 99 9.90000 2 272
1981016S15080 1981 5 SI MM GAELLE 1981-01-18 15:00:00 NR -16.6000 75.6575 main 1931 1911 _____P________ -1 -16.6000 75.6575 99 3 270
1981016S15080 1981 5 SI MM GAELLE 1981-01-18 18:00:00 NR -16.6000 75.5000 reunion main 1911 1901 _____O________ -1 -16.6000 75.5000 99 9.90000 3 270
1981016S15080 1981 5 SI MM GAELLE 1981-01-18 21:00:00 NR -16.6000 75.3425 main 1890 1880 _____P________ -1 -16.6000 75.3425 99 3 270
1981016S15080 1981 5 SI MM GAELLE 1981-01-19 00:00:00 NR -16.6000 75.2000 reunion main 1880 1880 _____O________ -1 -16.6000 75.2000 99 9.90000 2 265
1981016S15080 1981 5 SI MM GAELLE 1981-01-19 03:00:00 NR -16.6146 75.1751 main 1880 1859 _____P________ -1 -16.6146 75.1751 99 2 270
1981016S15080 1981 5 SI MM GAELLE 1981-01-19 06:00:00 TS -16.6000 75.0000 reunion main 1859 1811 _____O________ -1 -16.6000 75.0000 2 9.90000 7 278
1981016S15080 1981 5 SI MM GAELLE 1981-01-19 09:00:00 TS -16.5226 74.4550 main 1811 1733 _____P________ -1 -16.5226 74.4550 2 13 279
1981016S15080 1981 5 SI MM GAELLE 1981-01-19 12:00:00 NR -16.4000 73.7000 reunion main 1733 1665 _____O________ -1 -16.4000 73.7000 99 9.90000 15 280
1981016S15080 1981 5 SI MM GAELLE 1981-01-19 15:00:00 NR -16.2648 72.9376 main 1655 1581 _____P________ -1 -16.2648 72.9376 99 16 281
1981016S15080 1981 5 SI MM GAELLE 1981-01-19 18:00:00 NR -16.1000 72.1000 reunion main 1581 1498 _____O________ -1 -16.1000 72.1000 99 9.90000 17 281
1981016S15080 1981 5 SI MM GAELLE 1981-01-19 21:00:00 NR -15.9302 71.1777 main 1498 1418 _____P________ -1 -15.9302 71.1777 99 18 283
1981016S15080 1981 5 SI MM GAELLE 1981-01-20 00:00:00 NR -15.7000 70.3000 reunion main 1418 1363 _____O________ -1 -15.7000 70.3000 99 9.90000 16 290
1981016S15080 1981 5 SI MM GAELLE 1981-01-20 03:00:00 NR -15.3775 69.5946 main 1363 1326 _____P________ -1 -15.3775 69.5946 99 14 299
1981016S15080 1981 5 SI MM GAELLE 1981-01-20 06:00:00 TS -15.0000 69.0000 reunion main 1326 _____O________ -1 -15.0000 69.0000 6 9.90000 14 303

About IBTrACS Database

This database is a web-friendly format of International Best Track Archive for Climate Stewardship (IBTrACS), a global best track data archive curated by NOAA dating back to 1842.

Updated: 2021-10-08